Reboucas, Brazil
Current Conditions -  °F | °C
As of 10:00 PM on Saturday 25 Oct 2014 (Local Time) from SBBI Reporting Station
Haze Haze  
Wind Chill: 64°   Ceiling: 200
Heat Index: 64°   Visibility: 2.5mi
Dew Point: 63°   Wind: 6mph
Humidity: 94%   Direction: 70°ENE
Pressure: 30.03"   Gusts: NA
Location:  25.62°S, 50.69°W
Report Text: SBBI 260000Z 07005KT 4000 BR BKN002 BKN010 18/17 Q1017
Loading
Personal Weather Stations






























Interactive Weather Map
Tropical Storm Tracking
New forecast layout! Learn more

10-Day Weather Forecast

Advertisements
Track Severe Weather on mobile